Time;durP1;ratioP1;P1;durP2;ratioP2;P2;SDS_P1;SDS_P2;PMS_P1;PMS_P2;Temp;Humidity;BMP_temperature;BMP_pressure;BME280_temperature;BME280_humidity;BME280_pressure;Samples;Min_cycle;Max_cycle;Signal;HPM_P1;HPM_P2
2022/08/12 00:44:30;;;;;;;3.78;2.97;;;;;;;16.72;52.03;100534.03;10544355;28;20067;-67
2022/08/12 00:49:32;;;;;;;5.90;3.33;;;;;;;16.49;52.84;100528.03;10526794;28;20047;-67
2022/08/12 00:54:43;;;;;;;4.85;3.20;;;;;;;16.28;53.34;100537.88;10543876;28;20055;-67
2022/08/12 00:59:51;;;;;;;4.47;3.60;;;;;;;16.55;52.92;100533.03;10543381;28;20044;-68
2022/08/12 01:15:53;;;;;;;5.18;3.95;;;;;;;16.07;54.60;100517.66;10536643;23;20037;-70
2022/08/12 01:21:15;;;;;;;4.47;2.97;;;;;;;16.17;54.42;100518.13;10499255;28;20036;-68
2022/08/12 01:26:22;;;;;;;2.92;2.63;;;;;;;16.34;54.17;100532.31;10511682;28;20480;-70
2022/08/12 01:31:26;;;;;;;3.50;2.47;;;;;;;16.22;53.97;100539.97;10542166;28;20063;-69
2022/08/12 01:36:35;;;;;;;4.70;2.80;;;;;;;16.11;54.55;100528.09;10523752;28;20036;-68
2022/08/12 01:41:51;;;;;;;3.22;2.33;;;;;;;15.86;54.85;100519.53;10523517;28;20054;-69
2022/08/12 01:47:12;;;;;;;3.30;2.53;;;;;;;15.86;55.25;100523.06;10541790;28;20043;-69
2022/08/12 01:52:47;;;;;;;5.88;2.95;;;;;;;15.93;55.09;100507.72;10541444;28;20047;-69
2022/08/12 01:57:57;;;;;;;3.80;2.80;;;;;;;15.70;55.52;100516.72;10523329;28;20054;-69
2022/08/12 02:03:23;;;;;;;3.40;2.10;;;;;;;15.64;55.58;100506.41;10522968;28;20052;-69
2022/08/12 02:14:11;;;;;;;2.97;2.17;;;;;;;15.50;55.99;100514.94;10540779;28;20386;-69
2022/08/12 02:19:41;;;;;;;2.70;2.47;;;;;;;15.58;56.28;100512.81;10541424;28;20531;-69
2022/08/12 02:24:45;;;;;;;3.45;2.50;;;;;;;15.52;56.07;100502.47;10540434;28;20039;-69
2022/08/12 02:29:48;;;;;;;5.10;2.75;;;;;;;15.64;56.09;100498.47;10540188;28;20047;-69
2022/08/12 02:34:50;;;;;;;3.28;2.20;;;;;;;15.26;56.93;100497.47;10539897;28;20114;-70
2022/08/12 02:39:55;;;;;;;2.83;2.50;;;;;;;15.21;57.15;100494.16;10540108;28;20044;-69
2022/08/12 02:45:02;;;;;;;3.20;2.30;;;;;;;15.35;57.24;100486.47;10521748;28;20040;-69
2022/08/12 02:50:04;;;;;;;;;;;;;;;15.41;56.72;100474.75;10523217;28;20063;-69
2022/08/12 02:55:20;;;;;;;6.13;3.00;;;;;;;15.26;57.03;100471.84;10539541;28;19927;-68
2022/08/12 03:00:36;;;;;;;3.65;2.15;;;;;;;14.94;57.81;100461.81;10539450;28;20058;-69
2022/08/12 03:05:59;;;;;;;5.80;2.85;;;;;;;15.04;57.65;100460.47;10538957;28;20036;-69
2022/08/12 03:11:09;;;;;;;3.67;2.35;;;;;;;15.19;57.53;100474.84;10520870;28;20408;-69
2022/08/12 03:16:15;;;;;;;5.47;2.88;;;;;;;15.12;57.66;100482.19;10521780;28;20048;-69
2022/08/12 03:21:19;;;;;;;3.67;2.90;;;;;;;15.03;58.24;100494.03;10538710;28;20404;-70
2022/08/12 03:26:46;;;;;;;5.22;3.33;;;;;;;14.94;58.69;100502.38;10538939;28;20036;-70
2022/08/12 03:31:47;;;;;;;;;;;;;;;15.20;57.76;100503.03;10539232;28;20051;-69
2022/08/12 03:36:53;;;;;;;6.80;4.25;;;;;;;15.17;57.59;100509.31;10538545;28;19920;-69
2022/08/12 03:41:58;;;;;;;;;;;;;;;14.96;58.05;100511.09;10540997;28;20051;-69
2022/08/12 04:08:32;;;;;;;7.43;6.65;;;;;;;14.56;59.08;100517.19;10546761;28;20042;-69
2022/08/12 04:13:33;;;;;;;10.50;5.88;;;;;;;14.70;58.60;100520.16;10544989;28;20043;-69
2022/08/12 04:18:37;;;;;;;6.57;5.85;;;;;;;14.59;59.46;100525.84;10544592;28;20052;-69
2022/08/12 04:23:43;;;;;;;7.47;6.00;;;;;;;14.49;59.21;100527.16;10544600;28;20109;-69
2022/08/12 04:28:49;;;;;;;6.15;5.55;;;;;;;14.62;58.78;100527.53;10544606;28;20101;-69
2022/08/12 04:33:50;;;;;;;5.30;4.43;;;;;;;14.74;58.42;100531.44;10543739;28;20550;-69
2022/08/12 04:38:54;;;;;;;6.70;5.93;;;;;;;15.06;58.26;100519.53;10525112;28;20105;-69
2022/08/12 04:44:00;;;;;;;9.85;5.85;;;;;;;14.94;58.60;100525.34;10543975;28;20044;-69
2022/08/12 04:49:04;;;;;;;5.93;5.32;;;;;;;14.81;59.44;100517.03;10542952;28;20094;-69
2022/08/12 04:54:06;;;;;;;8.35;6.07;;;;;;;14.78;59.27;100525.94;10541557;28;20051;-69
2022/08/12 04:59:07;;;;;;;7.07;6.32;;;;;;;14.88;59.07;100521.16;10542207;28;20488;-69
2022/08/12 05:04:09;;;;;;;5.50;5.00;;;;;;;15.09;58.71;100517.59;10543249;28;20115;-71
2022/08/12 05:09:11;;;;;;;6.00;5.45;;;;;;;15.32;57.71;100526.34;10542483;28;20079;-70
2022/08/12 05:14:14;;;;;;;6.63;4.05;;;;;;;15.31;57.53;100529.91;10542001;28;20485;-69
2022/08/12 05:19:16;;;;;;;5.28;4.15;;;;;;;15.30;57.46;100533.50;10541925;28;20048;-70
2022/08/12 05:24:23;;;;;;;;;;;;;;;15.70;56.50;100524.66;10542621;28;20040;-69
2022/08/12 05:29:25;;;;;;;5.20;3.20;;;;;;;15.71;56.42;100538.78;10541880;28;19946;-70
2022/08/12 05:34:47;;;;;;;8.30;2.75;;;;;;;16.06;55.46;100529.22;10522883;28;20158;-69
2022/08/12 05:39:49;;;;;;;3.65;2.50;;;;;;;16.19;54.91;100540.97;10541161;28;20036;-70
2022/08/12 05:44:50;;;;;;;6.25;2.60;;;;;;;16.52;54.42;100537.66;10541079;28;20485;-68
2022/08/12 05:49:52;;;;;;;4.28;2.00;;;;;;;16.57;53.36;100541.81;10522668;28;20063;-68
2022/08/12 05:54:54;;;;;;;8.88;2.40;;;;;;;16.96;52.96;100542.63;10525828;28;20457;-68
2022/08/12 05:59:58;;;;;;;3.72;2.08;;;;;;;16.96;52.64;100546.13;10540662;28;20108;-68
2022/08/12 06:05:01;;;;;;;4.28;2.30;;;;;;;17.40;51.19;100556.31;10540313;28;20036;-68
2022/08/12 06:10:03;;;;;;;3.63;2.10;;;;;;;17.83;50.37;100548.72;10540253;28;20109;-69
2022/08/12 06:15:05;;;;;;;3.70;1.98;;;;;;;18.82;48.61;100548.56;10539819;28;20123;-68
2022/08/12 06:20:12;;;;;;;7.13;2.20;;;;;;;19.88;46.38;100543.09;10521839;28;20052;-69
2022/08/12 06:25:30;;;;;;;6.75;1.98;;;;;;;20.31;45.33;100550.19;10540155;28;20068;-68
2022/08/12 06:30:34;;;;;;;7.60;1.98;;;;;;;20.17;44.87;100559.91;10540394;28;20048;-69
2022/08/12 06:35:43;;;;;;;10.90;2.15;;;;;;;20.71;43.24;100564.50;10523038;28;20072;-70
2022/08/12 06:46:16;;;;;;;7.22;1.88;;;;;;;20.82;44.06;100561.16;10521169;28;20420;-69
2022/08/12 06:51:19;;;;;;;3.25;1.60;;;;;;;21.54;42.36;100561.66;10521655;28;20054;-70
2022/08/12 06:56:22;;;;;;;5.18;1.60;;;;;;;21.86;42.03;100560.25;10539608;28;20081;-70
2022/08/12 07:01:43;;;;;;;9.85;1.83;;;;;;;21.96;42.10;100560.47;10539584;28;20570;-70
2022/08/12 07:06:54;;;;;;;6.35;1.88;;;;;;;22.59;39.76;100551.47;10539138;28;20040;-71
2022/08/12 07:11:56;;;;;;;4.28;1.50;;;;;;;22.43;40.16;100553.53;10540290;28;20066;-69
2022/08/12 07:17:01;;;;;;;6.05;1.67;;;;;;;22.15;41.06;100554.69;10531315;22;20036;-70
2022/08/12 07:22:05;;;;;;;2.97;1.63;;;;;;;21.88;41.24;100558.34;10504488;28;20106;-71
2022/08/12 07:27:07;;;;;;;2.38;1.38;;;;;;;21.49;42.60;100572.66;10540494;28;20503;-71
2022/08/12 07:32:08;;;;;;;5.20;1.38;;;;;;;21.51;42.51;100565.38;10548140;28;20113;-70
2022/08/12 07:37:10;;;;;;;3.60;1.35;;;;;;;21.23;43.20;100571.72;10546049;28;20036;-70
2022/08/12 07:42:11;;;;;;;4.43;1.45;;;;;;;20.98;43.81;100577.84;10546482;28;20040;-70
2022/08/12 07:47:13;;;;;;;4.35;1.45;;;;;;;21.22;43.83;100577.19;10545909;28;20059;-71
2022/08/12 07:52:15;;;;;;;6.32;1.65;;;;;;;21.56;42.85;100573.97;10527224;28;20043;-70
2022/08/12 07:57:17;;;;;;;4.75;1.60;;;;;;;21.73;42.84;100572.78;10545061;28;20047;-70
2022/08/12 08:02:19;;;;;;;5.22;1.67;;;;;;;22.34;41.44;100567.59;10526653;28;20078;-70
2022/08/12 08:07:28;;;;;;;4.70;1.30;;;;;;;23.11;40.95;100561.00;10542798;28;20040;-70
2022/08/12 08:17:55;;;;;;;3.38;1.10;;;;;;;23.32;41.09;100563.00;10502756;28;20046;-70
2022/08/12 08:22:58;;;;;;;7.55;1.30;;;;;;;23.48;40.18;100560.88;10516594;28;20079;-69
2022/08/12 08:28:20;;;;;;;3.97;1.20;;;;;;;23.60;40.00;100561.75;10525518;28;20048;-70
2022/08/12 08:33:23;;;;;;;2.78;1.33;;;;;;;23.50;40.27;100550.84;10508514;28;20044;-68
2022/08/12 08:38:45;;;;;;;5.95;0.90;;;;;;;23.82;39.52;100550.22;10543988;28;20154;-68
2022/08/12 08:43:59;;;;;;;2.97;1.15;;;;;;;24.40;38.62;100542.88;10544465;28;20382;-69
2022/08/12 08:49:00;;;;;;;3.17;0.90;;;;;;;24.38;39.74;100536.75;10526060;28;20050;-69
2022/08/12 08:54:02;;;;;;;1.95;0.95;;;;;;;24.82;38.48;100521.50;10542966;28;20051;-69
2022/08/12 08:59:04;;;;;;;1.50;0.63;;;;;;;25.22;38.66;100524.38;10542969;28;20435;-69
2022/08/12 09:04:09;;;;;;;2.63;0.68;;;;;;;25.65;38.04;100529.63;10540813;28;20051;-68
2022/08/12 09:09:31;;;;;;;2.78;0.80;;;;;;;25.46;37.35;100520.59;10509195;28;20044;-69
2022/08/12 09:14:53;;;;;;;1.23;0.50;;;;;;;25.38;37.60;100522.09;10541882;28;20043;-68
2022/08/12 09:19:54;;;;;;;1.88;0.80;;;;;;;25.41;37.37;100515.56;10506405;28;20512;-68
2022/08/12 09:24:59;;;;;;;2.15;0.77;;;;;;;25.76;36.94;100506.28;10541563;28;20119;-69
2022/08/12 09:30:06;;;;;;;3.97;0.85;;;;;;;26.92;34.90;100504.75;10524705;28;20044;-69
2022/08/12 09:35:14;;;;;;;3.80;0.70;;;;;;;27.59;33.73;100500.25;10524495;28;20401;-70
2022/08/12 09:40:23;;;;;;;2.45;0.80;;;;;;;27.10;34.69;100496.81;10540722;28;20500;-70
2022/08/12 09:45:48;;;;;;;0.88;0.55;;;;;;;27.14;34.83;100490.13;10507153;28;20481;-71
2022/08/12 09:51:11;;;;;;;1.88;0.50;;;;;;;26.68;34.93;100482.75;10500893;28;20048;-69
2022/08/12 09:56:23;;;;;;;2.50;0.40;;;;;;;26.38;35.30;100480.97;10498636;28;20040;-68
2022/08/12 10:01:44;;;;;;;2.28;0.60;;;;;;;27.24;34.24;100473.91;10484438;28;20555;-68
2022/08/12 10:07:07;;;;;;;2.25;0.63;;;;;;;26.90;34.58;100479.75;10498742;28;20458;-70
2022/08/12 10:18:06;;;;;;;1.15;0.60;;;;;;;25.68;37.07;100477.34;10498439;28;20508;-68
2022/08/12 10:23:08;;;;;;;4.20;1.10;;;;;;;25.70;36.81;100466.44;10498895;28;20417;-68
2022/08/12 10:33:33;;;;;;;1.58;0.60;;;;;;;25.26;37.75;100453.19;10499589;28;20123;-69
2022/08/12 10:38:55;;;;;;;1.75;0.57;;;;;;;25.15;37.96;100450.59;10498141;28;20052;-69
2022/08/12 10:43:57;;;;;;;4.80;0.55;;;;;;;25.36;37.57;100448.69;10480239;28;20056;-69
2022/08/12 10:48:59;;;;;;;3.22;0.93;;;;;;;26.35;36.30;100438.16;10497750;28;20479;-69
2022/08/12 10:54:21;;;;;;;1.77;0.60;;;;;;;26.58;35.89;100430.66;10506430;28;20123;-69
2022/08/12 10:59:33;;;;;;;2.17;0.60;;;;;;;26.61;35.29;100423.16;10506364;28;20051;-68
2022/08/12 11:04:58;;;;;;;2.28;0.60;;;;;;;26.70;35.39;100432.22;10505989;28;20098;-68
2022/08/12 11:10:20;;;;;;;2.45;0.70;;;;;;;27.00;35.40;100419.53;10506612;28;20044;-68
2022/08/12 11:15:27;;;;;;;1.13;0.90;;;;;;;28.02;33.35;100414.19;10505579;28;20068;-69
2022/08/12 11:21:04;;;;;;;1.83;0.50;;;;;;;29.05;32.14;100405.56;10473202;28;20044;-70
2022/08/12 11:27:07;;;;;;;6.10;0.80;;;;;;;27.85;33.16;100413.19;10495818;28;20044;-68
2022/08/12 11:32:12;;;;;;;1.40;0.73;;;;;;;26.95;33.49;100411.88;10504624;28;20045;-68
2022/08/12 11:37:14;;;;;;;1.10;0.68;;;;;;;27.44;32.52;100393.72;10503952;28;20486;-68
2022/08/12 11:42:26;;;;;;;2.30;0.70;;;;;;;27.71;32.14;100383.91;10503617;28;20041;-68
2022/08/12 11:47:33;;;;;;;1.80;0.70;;;;;;;27.70;32.60;100382.22;10503710;28;20041;-69
2022/08/12 11:52:40;;;;;;;0.90;0.50;;;;;;;27.48;32.93;100397.81;10503341;28;20044;-69
2022/08/12 11:57:57;;;;;;;2.40;0.50;;;;;;;26.99;33.12;100390.84;10502990;28;20462;-69
2022/08/12 12:03:19;;;;;;;3.10;0.75;;;;;;;27.95;32.45;100378.00;10487570;28;20040;-69
2022/08/12 12:08:25;;;;;;;1.85;0.60;;;;;;;28.83;31.37;100373.56;10485360;28;20557;-70
2022/08/12 12:13:41;;;;;;;1.20;0.50;;;;;;;29.42;30.57;100366.50;10487743;28;20072;-70
2022/08/12 12:19:04;;;;;;;1.10;0.68;;;;;;;29.06;30.54;100363.94;10502413;28;20532;-69
2022/08/12 12:24:06;;;;;;;0.35;0.30;;;;;;;29.49;29.79;100364.84;10502163;28;20401;-69
2022/08/12 12:29:08;;;;;;;1.38;0.60;;;;;;;28.61;30.50;100378.47;10483774;28;20045;-67
2022/08/12 12:34:30;;;;;;;3.92;0.70;;;;;;;27.64;31.96;100356.69;10502199;28;20052;-70
2022/08/12 12:39:31;;;;;;;1.23;0.55;;;;;;;28.28;31.49;100347.56;10501676;28;20113;-70
2022/08/12 12:44:53;;;;;;;3.22;0.65;;;;;;;28.43;30.58;100356.03;10501033;28;20402;-68
2022/08/12 12:49:57;;;;;;;2.70;0.50;;;;;;;27.87;31.76;100349.03;10501122;28;20045;-69
2022/08/12 12:54:59;;;;;;;0.98;0.73;;;;;;;27.65;32.15;100334.06;10499743;28;20040;-69
2022/08/12 13:00:35;;;;;;;1.17;0.70;;;;;;;28.21;30.76;100338.41;10499045;28;20192;-66
2022/08/12 13:05:35;;;;;;;2.63;0.75;;;;;;;28.13;30.70;100338.31;10496698;28;20066;-67
2022/08/12 13:10:43;;;;;;;1.75;0.45;;;;;;;27.70;30.56;100330.91;10501359;28;20080;-68
2022/08/12 13:15:52;;;;;;;0.55;0.55;;;;;;;27.71;31.75;100317.25;10501617;23;20044;-69
2022/08/12 13:21:01;;;;;;;2.45;0.60;;;;;;;28.49;30.37;100319.38;10459958;28;20535;-70
2022/08/12 13:26:02;;;;;;;1.75;0.88;;;;;;;28.24;30.43;100318.28;10485074;28;20049;-70
2022/08/12 13:31:05;;;;;;;9.18;1.77;;;;;;;28.11;30.75;100299.78;10481804;28;20083;-70
2022/08/12 13:36:09;;;;;;;1.75;0.60;;;;;;;28.55;30.90;100308.78;10499340;28;20040;-70
2022/08/12 13:41:35;;;;;;;2.05;0.50;;;;;;;28.33;30.39;100291.19;10499861;28;20076;-69
2022/08/12 13:46:39;;;;;;;1.00;0.52;;;;;;;28.57;29.80;100293.25;10481458;28;20036;-71
2022/08/12 13:51:41;;;;;;;0.85;0.57;;;;;;;28.41;30.43;100271.50;10482284;28;20074;-72
2022/08/12 13:56:44;;;;;;;1.90;0.60;;;;;;;28.43;30.33;100277.63;10481760;28;20051;-70
2022/08/12 14:01:53;;;;;;;2.20;0.73;;;;;;;28.19;30.01;100280.06;10499926;28;20048;-70
2022/08/12 14:06:57;;;;;;;;;;;;;;;28.27;30.74;100280.16;10499074;28;20070;-70
2022/08/12 14:12:00;;;;;;;1.33;0.55;;;;;;;28.18;30.70;100276.53;10500123;28;19963;-68
2022/08/12 14:17:08;;;;;;;2.95;0.60;;;;;;;28.11;30.75;100275.44;10508693;28;20036;-69
2022/08/12 14:22:12;;;;;;;1.33;0.60;;;;;;;27.87;30.89;100274.22;10541267;28;20511;-70
2022/08/12 14:27:16;;;;;;;0.95;0.55;;;;;;;27.71;30.68;100262.38;10540146;28;20044;-70
2022/08/12 14:32:37;;;;;;;2.38;0.55;;;;;;;27.82;30.37;100254.09;10537727;28;20093;-70
2022/08/12 14:37:40;;;;;;;0.70;0.60;;;;;;;28.03;30.62;100248.38;10497721;28;20498;-70
2022/08/12 14:42:59;;;;;;;5.65;0.73;;;;;;;28.15;30.91;100247.94;10498620;28;20040;-70
2022/08/12 14:48:02;;;;;;;2.45;0.60;;;;;;;27.83;30.72;100262.03;10499152;28;20094;-69
2022/08/12 14:53:09;;;;;;;2.28;0.50;;;;;;;27.58;30.90;100243.84;10528740;28;20063;-71
2022/08/12 14:58:31;;;;;;;2.33;0.70;;;;;;;27.63;30.84;100239.72;10539766;28;20049;-70
2022/08/12 15:03:34;;;;;;;1.48;0.70;;;;;;;27.94;30.45;100235.81;10539665;28;20097;-70
2022/08/12 15:08:56;;;;;;;1.77;0.55;;;;;;;28.05;29.31;100240.94;10540418;28;20054;-69
2022/08/12 15:13:58;;;;;;;1.58;0.40;;;;;;;27.96;29.45;100233.78;10514763;28;20082;-70
2022/08/12 15:19:00;;;;;;;1.33;0.60;;;;;;;27.88;29.68;100226.44;10497919;28;20516;-69
2022/08/12 15:24:11;;;;;;;2.03;0.50;;;;;;;27.95;30.50;100216.72;10482498;28;20051;-70
2022/08/12 15:29:13;;;;;;;2.10;0.40;;;;;;;27.86;30.30;100225.78;10515747;28;20048;-70
2022/08/12 15:34:17;;;;;;;0.47;0.40;;;;;;;27.91;30.11;100218.03;10526137;28;20094;-71
2022/08/12 15:39:19;;;;;;;1.88;0.70;;;;;;;27.92;30.45;100222.44;10533254;28;20044;-70
2022/08/12 15:44:22;;;;;;;2.35;0.65;;;;;;;27.78;30.60;100226.53;10510515;28;20066;-71
2022/08/12 15:49:43;;;;;;;1.95;0.60;;;;;;;27.59;31.14;100219.41;10522785;28;20072;-71
2022/08/12 15:55:01;;;;;;;0.52;0.50;;;;;;;27.50;31.03;100216.78;10516468;28;20040;-70
2022/08/12 16:00:07;;;;;;;1.23;0.40;;;;;;;27.31;30.90;100223.16;10546010;28;20565;-70
2022/08/12 16:05:32;;;;;;;1.35;0.52;;;;;;;27.66;30.01;100209.69;10531300;28;20036;-70
2022/08/12 16:10:55;;;;;;;1.33;0.50;;;;;;;27.50;30.18;100214.94;10545201;28;20493;-70
2022/08/12 16:16:01;;;;;;;2.78;0.57;;;;;;;27.48;30.77;100214.22;10545973;28;20055;-70
2022/08/12 16:21:06;;;;;;;1.67;0.52;;;;;;;27.56;31.05;100211.63;10546138;28;20067;-68
2022/08/12 16:26:09;;;;;;;1.08;0.68;;;;;;;27.41;30.78;100203.22;10509741;28;20490;-71
2022/08/12 16:31:16;;;;;;;0.63;0.60;;;;;;;27.33;30.90;100204.97;10503337;28;20079;-70
2022/08/12 16:36:24;;;;;;;0.65;0.55;;;;;;;27.37;30.34;100201.81;10502963;28;20055;-70
2022/08/12 16:41:26;;;;;;;0.40;0.40;;;;;;;27.27;29.73;100200.16;10503628;28;20110;-70
2022/08/12 16:46:29;;;;;;;1.55;0.70;;;;;;;27.23;30.42;100196.09;10503223;28;20040;-69
2022/08/12 16:51:34;;;;;;;2.45;0.68;;;;;;;27.17;29.99;100194.84;10502865;28;20378;-69
2022/08/12 16:56:45;;;;;;;1.50;0.60;;;;;;;26.91;30.50;100190.13;10502261;28;20040;-70
2022/08/12 17:01:56;;;;;;;1.27;0.60;;;;;;;26.87;30.37;100183.34;10502730;28;20100;-70
2022/08/12 17:07:00;;;;;;;1.65;0.70;;;;;;;26.85;30.42;100181.78;10501470;28;20032;-70
2022/08/12 17:12:02;;;;;;;1.40;0.50;;;;;;;26.85;30.81;100177.25;10501704;28;20059;-70
2022/08/12 17:17:05;;;;;;;1.17;0.60;;;;;;;26.78;30.83;100173.44;10484077;28;20041;-69
2022/08/12 17:22:29;;;;;;;0.77;0.70;;;;;;;26.75;31.19;100175.59;10502201;28;20055;-70
2022/08/12 17:27:31;;;;;;;1.40;0.50;;;;;;;26.69;31.29;100165.41;10500428;28;20059;-69
2022/08/12 17:32:38;;;;;;;1.48;0.60;;;;;;;26.59;31.37;100157.34;10500437;28;20052;-70
2022/08/12 17:37:41;;;;;;;1.00;0.68;;;;;;;26.44;32.00;100165.09;10500998;28;20123;-69
2022/08/12 17:42:44;;;;;;;1.55;0.57;;;;;;;26.39;31.85;100167.34;10500648;28;20404;-69
2022/08/12 17:47:50;;;;;;;0.70;0.70;;;;;;;26.38;31.73;100173.72;10482611;28;20036;-71
2022/08/12 17:53:07;;;;;;;2.00;0.70;;;;;;;26.13;31.99;100173.38;10500461;28;20075;-70
2022/08/12 17:58:12;;;;;;;1.85;0.68;;;;;;;26.10;32.28;100179.03;10499364;28;20037;-70
2022/08/12 18:03:17;;;;;;;0.63;0.50;;;;;;;26.07;32.43;100189.25;10498625;28;20049;-70
2022/08/12 18:08:42;;;;;;;1.00;0.70;;;;;;;25.85;32.55;100182.34;10500312;28;20085;-70
2022/08/12 18:13:55;;;;;;;0.50;0.50;;;;;;;25.59;33.42;100188.28;10499687;28;20053;-69
2022/08/12 18:19:00;;;;;;;1.73;0.60;;;;;;;25.54;33.62;100197.75;10500397;28;20127;-70
2022/08/12 18:24:03;;;;;;;1.83;0.77;;;;;;;25.21;34.14;100199.00;10499873;28;20048;-69
2022/08/12 18:29:25;;;;;;;1.15;0.88;;;;;;;24.97;34.57;100204.69;10500680;28;20059;-70
2022/08/12 18:34:44;;;;;;;1.52;0.93;;;;;;;24.67;35.28;100207.28;10500027;28;20052;-70
2022/08/12 18:45:27;;;;;;;2.25;1.30;;;;;;;24.27;36.20;100223.31;10499433;28;20044;-71
2022/08/12 18:51:04;;;;;;;;;;;;;;;24.14;36.38;100220.81;10500893;28;20130;-70
2022/08/12 18:56:09;;;;;;;2.83;1.20;;;;;;;24.22;36.85;100224.72;10499983;28;19924;-71
2022/08/12 19:01:31;;;;;;;1.63;1.13;;;;;;;24.00;37.56;100234.59;10500410;28;20041;-71
2022/08/12 19:06:54;;;;;;;2.45;1.35;;;;;;;24.00;38.69;100229.22;10500772;28;20104;-70
2022/08/12 19:17:20;;;;;;;1.92;1.25;;;;;;;23.71;38.92;100231.66;10501948;23;20068;-66
2022/08/12 19:22:42;;;;;;;3.45;1.00;;;;;;;23.58;39.21;100241.66;10464169;28;20048;-67
2022/08/12 19:28:03;;;;;;;1.25;1.08;;;;;;;23.41;39.40;100243.91;10423031;28;20548;-67
2022/08/12 19:33:05;;;;;;;2.65;1.20;;;;;;;23.12;39.64;100243.59;10422242;28;20441;-68
2022/08/12 19:38:14;;;;;;;2.08;1.30;;;;;;;22.97;40.40;100247.50;10404513;28;20041;-68
2022/08/12 19:43:20;;;;;;;3.08;1.38;;;;;;;22.78;40.67;100242.72;10422092;28;20051;-68
2022/08/12 19:48:28;;;;;;;3.33;1.45;;;;;;;22.45;41.33;100240.06;10422222;28;20049;-69
2022/08/12 19:53:33;;;;;;;3.08;1.55;;;;;;;22.27;42.06;100243.19;10421811;28;20047;-68
2022/08/12 19:59:34;;;;;;;1.58;1.48;;;;;;;22.23;42.38;100236.34;10421116;28;20041;-68
2022/08/12 20:04:21;;;;;;;3.35;1.83;;;;;;;22.16;43.00;100240.47;10421283;28;20063;-68
2022/08/12 20:09:23;;;;;;;2.15;1.50;;;;;;;21.88;43.35;100247.03;10421103;28;20107;-68
2022/08/12 20:14:25;;;;;;;2.78;1.73;;;;;;;21.59;44.00;100238.50;10417524;28;20064;-68
2022/08/12 20:19:34;;;;;;;3.38;1.70;;;;;;;21.40;44.19;100242.53;10426609;28;20445;-67
2022/08/12 20:24:58;;;;;;;3.08;1.73;;;;;;;21.37;44.68;100237.41;10409490;28;20392;-68
2022/08/12 20:30:04;;;;;;;1.63;1.52;;;;;;;21.22;44.86;100237.66;10401848;28;20060;-67
2022/08/12 20:35:08;;;;;;;3.03;1.50;;;;;;;21.26;45.13;100233.81;10435070;28;20483;-68
2022/08/12 20:40:11;;;;;;;3.83;1.98;;;;;;;21.23;45.32;100242.03;10419704;28;20041;-69
2022/08/12 20:45:17;;;;;;;2.00;1.35;;;;;;;21.06;45.58;100238.75;10401636;28;20056;-67
2022/08/12 20:50:19;;;;;;;3.03;1.50;;;;;;;20.95;45.90;100245.84;10419732;28;20052;-68
2022/08/12 20:55:21;;;;;;;2.95;1.40;;;;;;;20.91;46.30;100240.72;10418642;28;20502;-68
2022/08/12 21:00:42;;;;;;;2.55;1.75;;;;;;;20.80;46.57;100245.13;10401038;28;20042;-67
2022/08/12 21:11:14;;;;;;;2.28;1.48;;;;;;;20.46;47.11;100246.63;10418607;28;20540;-67
2022/08/12 21:16:16;;;;;;;1.70;1.33;;;;;;;20.42;47.30;100243.31;10417868;28;20049;-68
2022/08/12 21:21:38;;;;;;;2.67;1.33;;;;;;;20.21;48.19;100247.44;10418022;28;20084;-68
2022/08/12 21:26:52;;;;;;;1.65;1.30;;;;;;;20.09;48.55;100246.44;10419353;28;20048;-68
2022/08/12 21:31:54;;;;;;;2.45;1.50;;;;;;;19.90;49.11;100249.50;10400054;28;20060;-67
2022/08/12 21:37:16;;;;;;;3.15;1.73;;;;;;;19.77;49.50;100253.97;10401647;28;20041;-68
2022/08/12 21:42:28;;;;;;;1.95;1.63;;;;;;;19.76;49.53;100254.91;10432167;28;20106;-67
2022/08/12 21:47:43;;;;;;;2.75;1.80;;;;;;;20.19;49.14;100252.91;10416704;28;20061;-68
2022/08/12 21:52:47;;;;;;;2.17;1.40;;;;;;;19.90;49.26;100249.50;10399093;28;20148;-67
2022/08/12 21:57:50;;;;;;;1.73;1.58;;;;;;;19.60;50.19;100255.91;10416352;28;20038;-68
2022/08/12 22:08:49;;;;;;;6.47;1.42;;;;;;;19.52;51.02;100258.22;10417320;28;20521;-67
2022/08/12 22:13:51;;;;;;;3.00;1.40;;;;;;;19.62;50.20;100271.84;10416129;28;20048;-68
2022/08/12 22:19:09;;;;;;;3.28;1.13;;;;;;;19.47;50.89;100264.78;10416030;28;20046;-68
2022/08/12 22:24:11;;;;;;;2.30;1.60;;;;;;;19.27;51.30;100263.44;10415992;28;20073;-68
2022/08/12 22:35:27;;;;;;;2.58;2.00;;;;;;;18.70;52.76;100267.00;10416256;28;20075;-69
2022/08/12 22:40:22;;;;;;;2.72;1.63;;;;;;;18.96;52.69;100265.38;10415386;28;20125;-68
2022/08/12 22:50:49;;;;;;;3.35;1.85;;;;;;;18.89;52.55;100262.22;10424758;28;20125;-67
2022/08/12 22:55:51;;;;;;;7.57;1.60;;;;;;;18.77;52.85;100260.34;10423089;28;20453;-67
2022/08/12 23:01:06;;;;;;;2.47;1.50;;;;;;;18.51;53.47;100269.91;10405201;28;20049;-68
2022/08/12 23:06:09;;;;;;;3.17;1.77;;;;;;;18.66;53.53;100262.78;10405464;28;20046;-67
2022/08/12 23:11:11;;;;;;;4.15;2.45;;;;;;;18.56;53.73;100259.81;10422589;28;20052;-67
2022/08/12 23:16:18;;;;;;;2.63;2.00;;;;;;;18.37;54.40;100268.06;10404399;28;20045;-68
2022/08/12 23:21:33;;;;;;;5.40;2.15;;;;;;;18.07;55.49;100269.91;10436378;28;20050;-67
2022/08/12 23:32:23;;;;;;;3.83;1.80;;;;;;;18.47;54.48;100260.38;10421676;28;20493;-67
2022/08/12 23:37:37;;;;;;;4.47;1.70;;;;;;;18.04;55.27;100260.28;10422228;28;20479;-68
2022/08/12 23:42:54;;;;;;;2.65;1.45;;;;;;;18.25;55.05;100254.66;10421864;28;20052;-68
2022/08/12 23:47:59;;;;;;;1.88;1.42;;;;;;;17.95;55.57;100252.84;10421075;28;20041;-68
2022/08/12 23:53:04;;;;;;;2.30;1.50;;;;;;;17.89;55.94;100245.25;10420722;28;20041;-68
2022/08/12 23:58:26;;;;;;;1.45;1.35;;;;;;;17.63;56.60;100249.38;10402057;28;20050;-68
